createdAt,value
2023-02-13T00:02:27.268Z,13.90
2023-02-13T00:07:29.078Z,13.32
2023-02-13T00:12:38.571Z,13.02
2023-02-13T00:17:40.570Z,15.30
2023-02-13T00:22:42.567Z,12.63
2023-02-13T00:27:44.791Z,15.85
2023-02-13T00:32:46.812Z,21.50
2023-02-13T00:37:48.572Z,22.45
2023-02-13T00:42:50.419Z,23.67
2023-02-13T00:47:52.453Z,21.20
2023-02-13T00:52:56.161Z,22.95
2023-02-13T00:57:57.995Z,24.00
2023-02-13T01:03:00.281Z,24.40
2023-02-13T01:08:02.612Z,30.65
2023-02-13T01:13:04.932Z,34.47
2023-02-13T01:18:09.929Z,32.97
2023-02-13T01:23:12.919Z,24.00
2023-02-13T01:28:14.880Z,23.88
2023-02-13T01:33:20.100Z,30.27
2023-02-13T01:38:22.071Z,23.05
2023-02-13T01:43:25.153Z,25.17
2023-02-13T01:48:27.961Z,26.63
2023-02-13T01:54:02.476Z,32.15
2023-02-13T01:59:12.306Z,28.73
2023-02-13T02:04:19.988Z,19.85
2023-02-13T02:09:27.705Z,22.70
2023-02-13T02:14:29.845Z,22.08
2023-02-13T02:19:44.893Z,23.88
2023-02-13T02:25:04.657Z,24.63
2023-02-13T02:30:39.374Z,18.40
2023-02-13T02:35:51.835Z,19.98
2023-02-13T02:41:40.219Z,22.48
2023-02-13T02:47:14.908Z,26.60
2023-02-13T02:52:26.829Z,25.73
2023-02-13T02:57:54.420Z,22.00
2023-02-13T03:03:14.970Z,26.92
2023-02-13T03:08:41.523Z,24.58
2023-02-13T03:13:47.163Z,21.80
2023-02-13T03:19:14.339Z,24.25
2023-02-13T03:24:50.908Z,23.25
2023-02-13T03:30:45.385Z,21.10
2023-02-13T03:36:12.572Z,19.60
2023-02-13T03:41:22.535Z,18.38
2023-02-13T03:46:27.329Z,21.70
2023-02-13T03:51:41.762Z,18.40
2023-02-13T03:57:04.147Z,20.23
2023-02-13T04:02:21.170Z,20.60
2023-02-13T04:07:32.209Z,20.15
2023-02-13T04:13:03.711Z,21.35
2023-02-13T04:18:10.832Z,23.85
2023-02-13T04:23:14.605Z,20.85
2023-02-13T04:28:19.600Z,24.67
2023-02-13T04:33:21.428Z,23.38
2023-02-13T04:38:29.293Z,15.68
2023-02-13T04:43:31.184Z,20.60
2023-02-13T04:48:32.950Z,21.88
2023-02-13T04:53:34.767Z,20.30
2023-02-13T04:58:36.646Z,24.30
2023-02-13T05:03:38.455Z,18.98
2023-02-13T05:08:40.332Z,15.80
2023-02-13T05:13:42.538Z,17.67
2023-02-13T05:18:46.502Z,14.40
2023-02-13T05:23:48.326Z,17.48
2023-02-13T05:29:08.605Z,18.38
2023-02-13T05:34:10.441Z,16.05
2023-02-13T05:39:12.462Z,14.07
2023-02-13T05:44:15.282Z,17.45
2023-02-13T05:49:17.096Z,20.38
2023-02-13T05:54:19.600Z,16.73
2023-02-13T05:59:23.928Z,14.57
2023-02-13T06:04:26.207Z,14.35
2023-02-13T06:09:32.488Z,17.35
2023-02-13T06:14:34.885Z,17.05
2023-02-13T06:19:36.612Z,16.52
2023-02-13T06:24:38.393Z,17.05
2023-02-13T06:29:40.162Z,14.70
2023-02-13T06:34:42.061Z,12.20
2023-02-13T06:39:43.998Z,14.80
2023-02-13T06:44:46.022Z,17.70
2023-02-13T06:49:48.350Z,14.35
2023-02-13T06:54:50.141Z,17.00
2023-02-13T06:59:51.888Z,25.02
2023-02-13T07:04:53.668Z,19.85
2023-02-13T07:09:55.412Z,18.45
2023-02-13T07:14:57.194Z,19.20
2023-02-13T07:19:59.245Z,18.85
2023-02-13T07:25:01.735Z,20.90
2023-02-13T07:30:04.209Z,22.73
2023-02-13T07:35:06.502Z,23.42
2023-02-13T07:40:09.385Z,22.85
2023-02-13T07:45:12.245Z,21.65
2023-02-13T07:50:14.273Z,20.73
2023-02-13T07:55:16.325Z,18.65
2023-02-13T08:00:22.449Z,21.17
2023-02-13T08:05:24.389Z,21.23
2023-02-13T08:10:44.881Z,19.90
2023-02-13T08:15:47.629Z,25.20
2023-02-13T08:20:49.481Z,21.45
2023-02-13T08:26:16.374Z,28.13
2023-02-13T08:31:21.584Z,26.75
2023-02-13T08:36:24.993Z,27.65
2023-02-13T08:41:27.144Z,17.42
2023-02-13T08:46:29.118Z,21.98
2023-02-13T08:51:30.950Z,20.23
2023-02-13T08:56:33.194Z,22.80
2023-02-13T09:01:46.988Z,25.27
2023-02-13T09:06:49.110Z,21.63
2023-02-13T09:11:52.643Z,28.05
2023-02-13T09:16:57.971Z,20.13
2023-02-13T09:22:00.056Z,22.65
2023-02-13T09:27:02.110Z,18.77
2023-02-13T09:32:06.415Z,26.45
2023-02-13T09:37:08.530Z,19.80
2023-02-13T09:42:33.676Z,22.80
2023-02-13T09:47:40.108Z,23.45
2023-02-13T09:52:45.815Z,24.65
2023-02-13T09:58:16.563Z,23.25
2023-02-13T10:03:53.574Z,19.38
2023-02-13T10:09:04.421Z,26.60
2023-02-13T10:14:28.175Z,22.27
2023-02-13T10:19:49.492Z,24.25
2023-02-13T10:25:11.156Z,24.58
2023-02-13T10:30:23.977Z,25.63
2023-02-13T10:35:30.920Z,17.58
2023-02-13T10:40:39.188Z,20.08
2023-02-13T10:45:47.061Z,15.15
2023-02-13T10:51:29.036Z,15.60
2023-02-13T10:56:54.327Z,20.67
2023-02-13T11:02:14.195Z,13.30
2023-02-13T11:07:19.782Z,11.25
2023-02-13T11:12:33.330Z,12.90
2023-02-13T11:17:39.968Z,11.60
2023-02-13T11:22:43.269Z,12.45
2023-02-13T11:27:46.519Z,13.95
2023-02-13T11:33:04.284Z,14.93
2023-02-13T11:38:20.978Z,12.13
2023-02-13T11:43:35.573Z,12.63
2023-02-13T11:48:37.534Z,15.18
2023-02-13T11:53:40.257Z,11.95
2023-02-13T11:58:43.313Z,10.68
2023-02-13T12:04:02.531Z,12.25
2023-02-13T12:09:04.562Z,11.38
2023-02-13T12:14:13.044Z,8.43
2023-02-13T12:19:21.624Z,8.18
2023-02-13T12:24:46.505Z,12.32
2023-02-13T12:29:54.189Z,6.45
2023-02-13T12:35:07.931Z,9.32
2023-02-13T12:40:27.044Z,7.80
2023-02-13T12:45:37.668Z,9.48
2023-02-13T12:51:03.511Z,11.57
2023-02-13T12:56:25.043Z,8.50
2023-02-13T13:01:57.379Z,8.65
2023-02-13T13:07:15.086Z,9.55
2023-02-13T13:12:31.700Z,8.60
2023-02-13T13:17:50.838Z,9.55
2023-02-13T13:22:53.952Z,8.13
2023-02-13T13:28:01.959Z,8.27
2023-02-13T13:33:10.082Z,7.70
2023-02-13T13:38:30.256Z,9.43
2023-02-13T13:43:54.353Z,13.25
2023-02-13T13:49:23.669Z,10.13
2023-02-13T13:54:35.165Z,14.13
2023-02-13T13:59:37.936Z,9.40
2023-02-13T14:04:43.716Z,9.38
2023-02-13T14:09:46.375Z,8.55
2023-02-13T14:14:48.399Z,11.00
2023-02-13T14:19:53.336Z,11.32
2023-02-13T14:24:59.125Z,10.60
2023-02-13T14:30:02.303Z,9.10
2023-02-13T14:35:20.983Z,11.15
2023-02-13T14:40:22.805Z,11.73
2023-02-13T14:45:29.665Z,10.20
2023-02-13T14:50:46.510Z,12.80
2023-02-13T14:55:55.888Z,9.00
2023-02-13T15:01:06.773Z,12.90
2023-02-13T15:06:20.004Z,10.73
2023-02-13T15:11:43.424Z,12.45
2023-02-13T15:16:49.671Z,15.43
2023-02-13T15:22:01.042Z,12.85
2023-02-13T15:27:06.648Z,11.15
2023-02-13T15:32:20.503Z,10.70
2023-02-13T15:37:29.983Z,11.73
2023-02-13T15:42:32.689Z,12.23
2023-02-13T15:47:36.896Z,14.25
2023-02-13T15:52:39.654Z,11.70
2023-02-13T15:57:44.064Z,17.08
2023-02-13T16:02:47.935Z,12.32
2023-02-13T16:07:53.670Z,16.38
2023-02-13T16:12:58.383Z,13.77
2023-02-13T16:18:01.373Z,17.35
2023-02-13T16:23:18.298Z,13.05
2023-02-13T16:28:24.058Z,13.98
2023-02-13T16:33:33.258Z,12.95
2023-02-13T16:38:45.670Z,11.73
2023-02-13T16:43:52.025Z,15.90
2023-02-13T16:48:57.037Z,13.52
2023-02-13T16:54:16.772Z,13.48
2023-02-13T16:59:43.452Z,11.77
2023-02-13T17:05:08.384Z,12.90
2023-02-13T17:10:27.474Z,14.65
2023-02-13T17:15:32.335Z,12.93
2023-02-13T17:20:35.883Z,15.05
2023-02-13T17:25:38.383Z,12.02
2023-02-13T17:30:41.512Z,16.60
2023-02-13T17:35:43.542Z,16.77
2023-02-13T17:40:46.166Z,16.23
2023-02-13T17:45:50.200Z,18.58
2023-02-13T17:50:52.568Z,19.38
2023-02-13T17:55:54.447Z,17.20
2023-02-13T18:00:56.640Z,17.40
2023-02-13T18:05:58.934Z,20.35
2023-02-13T18:11:00.966Z,21.83
2023-02-13T18:16:08.808Z,17.55
2023-02-13T18:26:15.505Z,22.35
2023-02-13T18:31:17.659Z,20.50
2023-02-13T18:36:19.656Z,18.83
2023-02-13T18:41:21.930Z,18.35
2023-02-13T18:46:24.239Z,18.25
2023-02-13T18:51:26.737Z,21.55
2023-02-13T18:56:28.813Z,17.10
2023-02-13T19:01:30.769Z,18.33
2023-02-13T19:06:33.943Z,18.13
2023-02-13T19:11:38.668Z,21.98
2023-02-13T19:16:41.169Z,17.60
2023-02-13T19:21:43.117Z,20.70
2023-02-13T19:26:45.114Z,16.83
2023-02-13T19:31:47.128Z,17.55
2023-02-13T19:36:49.011Z,28.20
2023-02-13T19:41:51.101Z,20.50
2023-02-13T19:46:53.103Z,18.77
2023-02-13T19:51:55.258Z,19.15
2023-02-13T19:57:01.641Z,17.95
2023-02-13T20:02:03.564Z,17.08
2023-02-13T20:07:06.354Z,17.95
2023-02-13T20:12:08.122Z,13.85
2023-02-13T20:17:09.945Z,15.82
2023-02-13T20:22:16.821Z,18.25
2023-02-13T20:27:18.660Z,16.50
2023-02-13T20:32:21.354Z,16.48
2023-02-13T20:37:25.794Z,16.98
2023-02-13T20:42:27.835Z,15.43
2023-02-13T20:47:29.622Z,16.75
2023-02-13T20:52:34.605Z,18.40
2023-02-13T20:57:37.049Z,18.20
2023-02-13T21:02:39.076Z,18.25
2023-02-13T21:07:41.257Z,17.42
2023-02-13T21:12:43.692Z,16.55
2023-02-13T21:17:46.190Z,18.25
2023-02-13T21:22:48.093Z,21.17
2023-02-13T21:27:50.186Z,20.05
2023-02-13T21:32:51.924Z,20.70
2023-02-13T21:37:55.027Z,20.42
2023-02-13T21:42:56.768Z,20.48
2023-02-13T21:47:58.612Z,17.67
2023-02-13T21:53:00.535Z,15.60
2023-02-13T21:58:02.336Z,14.63
2023-02-13T22:03:04.210Z,18.33
2023-02-13T22:08:12.158Z,21.17
2023-02-13T22:18:15.744Z,16.70
2023-02-13T22:23:17.596Z,24.35
2023-02-13T22:28:19.358Z,20.85
2023-02-13T22:33:21.639Z,18.30
2023-02-13T22:38:23.434Z,22.33
2023-02-13T22:43:32.562Z,25.52
2023-02-13T22:48:38.538Z,25.30
2023-02-13T22:53:40.690Z,17.48
2023-02-13T22:58:42.428Z,25.75
2023-02-13T23:03:44.848Z,20.45
2023-02-13T23:08:49.272Z,18.33
2023-02-13T23:13:51.033Z,20.25
2023-02-13T23:18:57.500Z,26.83
2023-02-13T23:23:59.329Z,21.73
2023-02-13T23:29:01.160Z,24.25
2023-02-13T23:34:03.479Z,19.90
2023-02-13T23:39:05.353Z,23.80
2023-02-13T23:44:07.258Z,27.08
2023-02-13T23:49:09.159Z,22.30
2023-02-13T23:54:14.990Z,19.33
2023-02-13T23:59:18.705Z,22.33
